createdAt,value
2023-05-09T00:03:25.605Z,8.90
2023-05-09T00:08:29.531Z,8.90
2023-05-09T00:13:35.509Z,8.80
2023-05-09T00:18:42.631Z,8.70
2023-05-09T00:23:46.191Z,8.60
2023-05-09T00:28:51.068Z,8.60
2023-05-09T00:33:55.865Z,8.50
2023-05-09T00:38:59.066Z,8.50
2023-05-09T00:44:03.675Z,8.50
2023-05-09T00:49:08.166Z,8.40
2023-05-09T00:54:12.817Z,8.40
2023-05-09T00:59:18.087Z,8.40
2023-05-09T01:04:21.356Z,8.40
2023-05-09T01:09:30.528Z,8.30
2023-05-09T01:14:56.023Z,8.30
2023-05-09T01:20:06.928Z,8.20
2023-05-09T01:25:39.141Z,8.20
2023-05-09T01:30:47.929Z,8.20
2023-05-09T01:35:55.018Z,8.20
2023-05-09T01:40:59.900Z,8.10
2023-05-09T01:46:06.701Z,8.00
2023-05-09T01:51:12.391Z,8.00
2023-05-09T01:56:17.124Z,7.90
2023-05-09T02:01:23.054Z,7.90
2023-05-09T02:06:29.758Z,7.70
2023-05-09T02:11:33.919Z,7.60
2023-05-09T02:16:40.186Z,7.60
2023-05-09T02:21:44.253Z,7.60
2023-05-09T02:26:47.727Z,7.50
2023-05-09T02:31:53.375Z,7.50
2023-05-09T02:36:56.712Z,7.40
2023-05-09T02:42:06.952Z,7.40
2023-05-09T02:47:11.541Z,7.40
2023-05-09T02:52:15.041Z,7.30
2023-05-09T02:57:18.369Z,7.30
2023-05-09T03:02:23.768Z,7.30
2023-05-09T03:07:27.992Z,7.30
2023-05-09T03:12:31.267Z,7.20
2023-05-09T03:17:36.430Z,7.10
2023-05-09T03:22:40.227Z,7.10
2023-05-09T03:27:46.324Z,7.10
2023-05-09T03:32:53.190Z,7.10
2023-05-09T03:37:56.965Z,7.10
2023-05-09T03:43:00.230Z,7.00
2023-05-09T03:48:08.584Z,7.00
2023-05-09T03:53:15.406Z,7.00
2023-05-09T03:58:21.157Z,7.10
2023-05-09T04:03:27.042Z,7.00
2023-05-09T04:08:31.144Z,7.10
2023-05-09T04:13:35.575Z,7.10
2023-05-09T04:18:45.335Z,7.20
2023-05-09T04:23:48.626Z,7.20
2023-05-09T04:28:54.036Z,7.30
2023-05-09T04:33:58.924Z,7.30
2023-05-09T04:39:05.235Z,8.40
2023-05-09T04:44:11.206Z,10.80
2023-05-09T04:49:16.619Z,12.40
2023-05-09T04:54:20.396Z,13.30
2023-05-09T04:59:24.902Z,13.90
2023-05-09T05:04:30.511Z,12.20
2023-05-09T05:09:34.385Z,10.50
2023-05-09T05:14:38.228Z,9.70
2023-05-09T05:19:45.926Z,9.30
2023-05-09T05:24:49.966Z,9.30
2023-05-09T05:29:53.845Z,9.10
2023-05-09T05:34:59.035Z,9.00
2023-05-09T05:40:03.035Z,9.00
2023-05-09T05:45:08.866Z,9.20
2023-05-09T05:50:17.598Z,9.30
2023-05-09T05:55:21.394Z,9.50
2023-05-09T06:00:25.062Z,9.60
2023-05-09T06:05:37.679Z,9.70
2023-05-09T06:10:41.925Z,9.90
2023-05-09T06:15:45.345Z,10.10
2023-05-09T06:20:50.005Z,10.40
2023-05-09T06:25:53.220Z,10.50
2023-05-09T06:30:56.582Z,10.70
2023-05-09T06:36:02.124Z,10.90
2023-05-09T06:41:05.249Z,11.10
2023-05-09T06:46:08.842Z,11.40
2023-05-09T06:51:13.852Z,11.50
2023-05-09T06:56:20.267Z,11.80
2023-05-09T07:01:24.054Z,12.00
2023-05-09T07:06:29.189Z,12.20
2023-05-09T07:11:36.608Z,12.50
2023-05-09T07:16:40.082Z,12.70
2023-05-09T07:21:45.198Z,12.70
2023-05-09T07:26:48.465Z,12.90
2023-05-09T07:31:51.959Z,13.10
2023-05-09T07:36:57.131Z,13.30
2023-05-09T07:42:00.424Z,13.40
2023-05-09T07:47:05.661Z,13.60
2023-05-09T07:52:11.016Z,13.90
2023-05-09T07:57:14.385Z,14.10
2023-05-09T08:02:17.656Z,14.40
2023-05-09T08:07:22.885Z,14.70
2023-05-09T08:12:26.695Z,15.10
2023-05-09T08:17:30.361Z,15.50
2023-05-09T08:22:35.254Z,15.70
2023-05-09T08:27:39.045Z,16.00
2023-05-09T08:32:42.758Z,16.30
2023-05-09T08:37:48.357Z,16.40
2023-05-09T08:42:52.283Z,16.80
2023-05-09T08:47:56.401Z,16.90
2023-05-09T08:53:01.561Z,17.00
2023-05-09T08:58:05.673Z,17.20
2023-05-09T09:03:09.937Z,17.40
2023-05-09T09:08:15.742Z,17.60
2023-05-09T09:13:20.100Z,17.90
2023-05-09T09:18:27.678Z,18.10
2023-05-09T09:23:34.606Z,18.00
2023-05-09T09:28:38.253Z,18.20
2023-05-09T09:33:41.697Z,18.30
2023-05-09T09:38:46.766Z,18.60
2023-05-09T09:43:50.572Z,18.70
2023-05-09T09:48:57.947Z,18.80
2023-05-09T09:54:03.842Z,18.80
2023-05-09T09:59:11.362Z,18.80
2023-05-09T10:04:17.935Z,18.70
2023-05-09T10:09:23.903Z,18.80
2023-05-09T10:14:28.880Z,19.00
2023-05-09T10:19:32.969Z,19.00
2023-05-09T10:24:43.475Z,19.20
2023-05-09T10:29:51.281Z,19.30
2023-05-09T10:34:59.776Z,19.40
2023-05-09T10:40:06.590Z,19.60
2023-05-09T10:45:12.173Z,19.40
2023-05-09T10:50:16.552Z,19.30
2023-05-09T10:55:21.674Z,19.40
2023-05-09T11:00:26.604Z,19.40
2023-05-09T11:05:40.628Z,19.40
2023-05-09T11:10:45.684Z,19.40
2023-05-09T11:16:05.200Z,19.40
2023-05-09T11:21:11.800Z,19.50
2023-05-09T11:26:17.749Z,19.50
2023-05-09T11:31:21.518Z,19.60
2023-05-09T11:36:32.339Z,19.80
2023-05-09T11:41:48.720Z,19.90
2023-05-09T11:46:52.356Z,19.90
2023-05-09T11:51:55.597Z,20.00
2023-05-09T11:57:01.226Z,20.10
2023-05-09T12:02:06.362Z,20.00
2023-05-09T12:07:12.792Z,20.10
2023-05-09T12:12:21.113Z,20.20
2023-05-09T12:17:24.870Z,20.20
2023-05-09T12:22:30.823Z,20.20
2023-05-09T12:27:36.985Z,20.20
2023-05-09T12:32:42.374Z,20.30
2023-05-09T12:37:57.543Z,20.20
2023-05-09T12:43:03.061Z,20.10
2023-05-09T12:48:09.447Z,20.20
2023-05-09T12:53:13.209Z,20.20
2023-05-09T12:58:18.274Z,20.40
2023-05-09T13:03:25.607Z,20.50
2023-05-09T13:08:30.557Z,20.50
2023-05-09T13:13:35.795Z,20.50
2023-05-09T13:18:39.423Z,20.70
2023-05-09T13:23:44.855Z,20.90
2023-05-09T13:28:50.091Z,20.90
2023-05-09T13:33:53.775Z,20.80
2023-05-09T13:38:57.477Z,20.90
2023-05-09T13:44:02.446Z,20.90
2023-05-09T13:49:06.558Z,21.10
2023-05-09T13:54:13.071Z,21.20
2023-05-09T13:59:18.123Z,21.30
2023-05-09T14:04:21.640Z,21.20
2023-05-09T14:09:25.383Z,21.20
2023-05-09T14:14:30.262Z,21.20
2023-05-09T14:19:33.892Z,21.10
2023-05-09T14:24:37.395Z,21.20
2023-05-09T14:29:43.536Z,21.20
2023-05-09T14:34:49.908Z,21.20
2023-05-09T14:39:53.527Z,21.10
2023-05-09T14:44:58.600Z,21.10
2023-05-09T14:50:01.879Z,21.00
2023-05-09T14:55:07.227Z,20.90
2023-05-09T15:00:21.299Z,20.90
2023-05-09T15:05:25.834Z,20.90
2023-05-09T15:10:29.716Z,20.90
2023-05-09T15:15:34.729Z,21.00
2023-05-09T15:20:38.170Z,21.00
2023-05-09T15:25:44.903Z,20.90
2023-05-09T15:30:49.905Z,20.90
2023-05-09T15:35:58.014Z,20.90
2023-05-09T15:41:01.677Z,20.90
2023-05-09T15:46:06.833Z,20.80
2023-05-09T15:51:10.413Z,20.80
2023-05-09T15:56:13.667Z,20.70
2023-05-09T16:01:18.807Z,20.80
2023-05-09T16:06:22.580Z,20.80
2023-05-09T16:11:26.407Z,20.80
2023-05-09T16:16:31.336Z,20.90
2023-05-09T16:21:34.501Z,21.00
2023-05-09T16:26:37.785Z,21.30
2023-05-09T16:31:42.947Z,21.60
2023-05-09T16:36:46.847Z,21.90
2023-05-09T16:41:50.530Z,22.10
2023-05-09T16:46:55.827Z,22.60
2023-05-09T16:51:59.783Z,23.10
2023-05-09T16:57:03.673Z,22.80
2023-05-09T17:02:09.165Z,22.50
2023-05-09T17:07:14.767Z,22.10
2023-05-09T17:12:18.728Z,21.70
2023-05-09T17:17:23.682Z,21.40
2023-05-09T17:22:27.426Z,20.90
2023-05-09T17:27:30.961Z,20.70
2023-05-09T17:32:35.987Z,20.70
2023-05-09T17:37:39.712Z,20.70
2023-05-09T17:42:43.317Z,20.40
2023-05-09T17:47:48.450Z,20.00
2023-05-09T17:52:52.184Z,19.80
2023-05-09T17:57:55.926Z,19.70
2023-05-09T18:03:01.742Z,19.50
2023-05-09T18:08:06.065Z,19.40
2023-05-09T18:13:09.630Z,19.20
2023-05-09T18:18:16.041Z,19.00
2023-05-09T18:23:19.633Z,18.70
2023-05-09T18:28:25.710Z,18.30
2023-05-09T18:33:30.681Z,17.90
2023-05-09T18:38:38.394Z,17.60
2023-05-09T18:43:46.244Z,17.30
2023-05-09T18:48:53.324Z,17.10
2023-05-09T18:53:57.155Z,16.80
2023-05-09T18:59:00.845Z,16.60
2023-05-09T19:04:07.365Z,16.40
2023-05-09T19:09:11.882Z,16.20
2023-05-09T19:14:15.382Z,16.00
2023-05-09T19:19:20.493Z,15.80
2023-05-09T19:24:24.144Z,15.60
2023-05-09T19:29:27.786Z,15.50
2023-05-09T19:34:32.603Z,15.40
2023-05-09T19:39:36.060Z,15.30
2023-05-09T19:44:40.849Z,15.10
2023-05-09T19:49:46.042Z,15.00
2023-05-09T19:54:49.943Z,14.90
2023-05-09T19:59:53.762Z,14.80
2023-05-09T20:04:58.720Z,14.70
2023-05-09T20:10:03.480Z,14.50
2023-05-09T20:15:08.402Z,14.50
2023-05-09T20:20:14.237Z,14.40
2023-05-09T20:25:18.152Z,14.30
2023-05-09T20:30:22.203Z,14.20
2023-05-09T20:35:27.056Z,14.10
2023-05-09T20:40:30.729Z,14.00
2023-05-09T20:45:34.675Z,13.90
2023-05-09T20:50:39.890Z,13.80
2023-05-09T20:55:43.609Z,13.80
2023-05-09T21:00:47.849Z,13.70
2023-05-09T21:05:52.984Z,13.60
2023-05-09T21:10:56.635Z,13.50
2023-05-09T21:16:00.337Z,13.40
2023-05-09T21:21:08.496Z,13.30
2023-05-09T21:26:12.143Z,13.30
2023-05-09T21:31:15.937Z,13.20
2023-05-09T21:36:21.247Z,13.10
2023-05-09T21:41:24.749Z,13.00
2023-05-09T21:46:28.383Z,12.90
2023-05-09T21:51:33.817Z,12.80
2023-05-09T21:56:37.403Z,12.80
2023-05-09T22:01:41.728Z,12.60
2023-05-09T22:06:47.850Z,12.60
2023-05-09T22:11:52.331Z,12.50
2023-05-09T22:16:56.001Z,12.50
2023-05-09T22:22:01.200Z,12.30
2023-05-09T22:27:04.850Z,12.30
2023-05-09T22:32:09.059Z,12.20
2023-05-09T22:37:14.171Z,12.10
2023-05-09T22:42:22.470Z,11.90
2023-05-09T22:47:26.009Z,11.80
2023-05-09T22:52:31.121Z,11.70
2023-05-09T22:57:34.623Z,11.60
2023-05-09T23:02:38.016Z,11.60
2023-05-09T23:07:43.060Z,11.50
2023-05-09T23:12:46.977Z,11.40
2023-05-09T23:17:50.846Z,11.40
2023-05-09T23:22:55.862Z,11.30
2023-05-09T23:27:59.490Z,11.30
2023-05-09T23:33:03.695Z,11.20
2023-05-09T23:38:08.640Z,11.20
2023-05-09T23:43:12.225Z,11.10
2023-05-09T23:48:15.906Z,11.10
2023-05-09T23:53:20.573Z,11.00
2023-05-09T23:58:23.910Z,10.90
